Henleyfield, Mississippi
Current Conditions -  °F | °C
As of 8:52 PM on Tuesday 25 Nov 2014 (Local Time) from KHSA Reporting Station
Scattered Clouds Scattered Clouds  
Wind Chill: 46°   Ceiling: Unl
Heat Index: 48°   Visibility: 10mi
Dew Point: 30°   Wind: 6mph
Humidity: 50%   Direction: 330°NNW
Pressure: 30.19"   Gusts: NA
Location:  30.6922°N, 89.5187°W
Report Text: KHSA 260252Z 33005KT 10SM SCT110 09/M01 A3019
Loading
Personal Weather Stations






























Interactive Weather Map New forecast layout! Learn more

10-Day Weather Forecast

Advertisements
Track Severe Weather on mobile